createdAt,value
2022-07-30T00:01:14.805Z,32.33
2022-07-30T00:03:48.926Z,30.75
2022-07-30T00:06:25.440Z,30.48
2022-07-30T00:09:00.857Z,32.80
2022-07-30T00:11:34.314Z,33.22
2022-07-30T00:14:07.316Z,33.65
2022-07-30T00:16:40.894Z,35.53
2022-07-30T00:19:14.569Z,35.50
2022-07-30T00:21:50.870Z,32.33
2022-07-30T00:24:27.931Z,32.45
2022-07-30T00:27:02.237Z,30.48
2022-07-30T00:29:35.971Z,31.45
2022-07-30T00:32:18.715Z,31.42
2022-07-30T00:34:52.782Z,31.70
2022-07-30T00:37:26.992Z,32.10
2022-07-30T00:40:04.282Z,29.23
2022-07-30T00:42:46.283Z,29.40
2022-07-30T00:45:20.951Z,30.90
2022-07-30T00:47:54.350Z,29.00
2022-07-30T00:50:27.771Z,30.20
2022-07-30T00:53:01.832Z,27.95
2022-07-30T00:55:36.809Z,28.58
2022-07-30T00:58:12.640Z,27.50
2022-07-30T01:00:45.780Z,26.40
2022-07-30T01:03:19.614Z,27.63
2022-07-30T01:05:54.035Z,27.77
2022-07-30T01:08:29.082Z,28.33
2022-07-30T01:11:05.276Z,27.05
2022-07-30T01:13:39.002Z,26.35
2022-07-30T01:16:12.922Z,25.42
2022-07-30T01:19:05.871Z,25.48
2022-07-30T01:21:44.627Z,24.27
2022-07-30T01:24:27.579Z,27.63
2022-07-30T01:27:04.400Z,24.45
2022-07-30T01:29:55.206Z,25.85
2022-07-30T01:32:30.217Z,24.20
2022-07-30T01:35:05.282Z,23.30
2022-07-30T01:37:40.125Z,20.17
2022-07-30T01:40:16.256Z,25.90
2022-07-30T01:42:56.036Z,23.65
2022-07-30T01:45:35.716Z,22.88
2022-07-30T01:48:17.223Z,23.55
2022-07-30T01:50:53.428Z,21.30
2022-07-30T01:53:29.890Z,20.88
2022-07-30T01:56:06.021Z,24.88
2022-07-30T02:01:37.663Z,22.30
2022-07-30T02:04:10.790Z,24.23
2022-07-30T02:06:47.602Z,25.20
2022-07-30T02:09:30.447Z,20.27
2022-07-30T02:12:21.812Z,20.38
2022-07-30T02:15:01.934Z,23.58
2022-07-30T02:17:44.972Z,24.30
2022-07-30T02:20:20.405Z,24.55
2022-07-30T02:23:02.384Z,23.08
2022-07-30T02:25:38.907Z,25.33
2022-07-30T02:28:17.117Z,26.17
2022-07-30T02:30:55.190Z,24.52
2022-07-30T02:33:34.504Z,25.08
2022-07-30T02:36:11.549Z,24.35
2022-07-30T02:38:46.995Z,26.77
2022-07-30T02:41:21.781Z,24.50
2022-07-30T02:43:57.151Z,23.05
2022-07-30T02:46:34.869Z,23.75
2022-07-30T02:49:33.820Z,27.42
2022-07-30T02:52:13.428Z,28.90
2022-07-30T02:54:48.226Z,28.30
2022-07-30T02:57:24.882Z,27.52
2022-07-30T02:59:59.863Z,28.75
2022-07-30T03:02:37.679Z,27.88
2022-07-30T03:05:13.633Z,27.95
2022-07-30T03:07:47.661Z,25.92
2022-07-30T03:10:22.036Z,24.33
2022-07-30T03:12:57.489Z,23.83
2022-07-30T03:15:34.127Z,26.20
2022-07-30T03:18:17.140Z,23.65
2022-07-30T03:20:53.723Z,26.85
2022-07-30T03:23:29.640Z,28.13
2022-07-30T03:26:06.409Z,25.00
2022-07-30T03:28:47.383Z,24.23
2022-07-30T03:31:21.849Z,26.30
2022-07-30T03:33:59.046Z,24.15
2022-07-30T03:36:34.789Z,30.73
2022-07-30T03:39:10.872Z,32.53
2022-07-30T03:41:51.484Z,32.30
2022-07-30T03:44:26.041Z,32.15
2022-07-30T03:47:02.220Z,26.15
2022-07-30T03:49:43.506Z,27.75
2022-07-30T03:52:19.267Z,30.50
2022-07-30T03:54:53.953Z,29.95
2022-07-30T03:57:59.839Z,32.42
2022-07-30T04:00:36.276Z,29.52
2022-07-30T04:03:20.633Z,29.65
2022-07-30T04:05:57.851Z,31.73
2022-07-30T04:08:33.286Z,29.33
2022-07-30T04:11:06.896Z,29.15
2022-07-30T04:13:56.473Z,31.02
2022-07-30T04:16:48.548Z,26.85
2022-07-30T04:19:26.733Z,28.45
2022-07-30T04:22:24.331Z,26.02
2022-07-30T04:24:59.497Z,26.77
2022-07-30T04:27:37.012Z,27.02
2022-07-30T04:30:31.411Z,26.73
2022-07-30T04:33:11.801Z,26.55
2022-07-30T04:36:00.695Z,28.85
2022-07-30T04:38:44.370Z,27.30
2022-07-30T04:41:48.242Z,27.30
2022-07-30T04:44:42.647Z,30.30
2022-07-30T04:47:30.551Z,30.15
2022-07-30T04:50:31.550Z,32.30
2022-07-30T04:53:06.387Z,31.80
2022-07-30T04:55:48.946Z,30.65
2022-07-30T04:58:26.096Z,28.30
2022-07-30T05:01:02.133Z,29.63
2022-07-30T05:03:39.276Z,28.95
2022-07-30T05:06:18.510Z,27.67
2022-07-30T05:08:52.738Z,27.88
2022-07-30T05:11:53.519Z,26.63
2022-07-30T05:14:28.607Z,27.50
2022-07-30T05:17:02.494Z,26.65
2022-07-30T05:19:37.134Z,25.75
2022-07-30T05:22:10.519Z,26.05
2022-07-30T05:24:45.345Z,24.73
2022-07-30T05:27:22.014Z,24.20
2022-07-30T05:29:56.516Z,25.73
2022-07-30T05:32:31.478Z,24.90
2022-07-30T05:35:06.338Z,26.63
2022-07-30T05:37:40.717Z,27.73
2022-07-30T05:40:15.400Z,27.13
2022-07-30T05:42:50.833Z,27.48
2022-07-30T05:45:24.604Z,26.90
2022-07-30T05:50:47.019Z,23.90
2022-07-30T05:53:21.471Z,24.80
2022-07-30T05:56:30.143Z,24.92
2022-07-30T05:59:11.368Z,26.48
2022-07-30T06:02:04.791Z,24.92
2022-07-30T06:04:59.385Z,25.52
2022-07-30T06:07:35.018Z,28.67
2022-07-30T06:10:10.902Z,27.13
2022-07-30T06:12:45.273Z,27.20
2022-07-30T06:15:25.875Z,25.17
2022-07-30T06:18:01.813Z,26.05
2022-07-30T06:20:52.983Z,26.40
2022-07-30T06:23:42.962Z,28.45
2022-07-30T06:26:35.090Z,26.52
2022-07-30T06:29:10.774Z,26.15
2022-07-30T06:31:47.955Z,27.02
2022-07-30T06:34:21.933Z,26.20
2022-07-30T06:36:55.440Z,26.17
2022-07-30T06:39:57.480Z,25.48
2022-07-30T06:42:57.520Z,26.75
2022-07-30T06:45:49.472Z,27.10
2022-07-30T06:48:30.969Z,27.70
2022-07-30T06:51:06.381Z,28.23
2022-07-30T06:53:42.748Z,27.80
2022-07-30T06:56:37.731Z,27.15
2022-07-30T06:59:15.909Z,28.38
2022-07-30T07:02:10.666Z,27.33
2022-07-30T07:05:04.709Z,27.80
2022-07-30T07:07:43.210Z,22.52
2022-07-30T07:10:22.274Z,23.05
2022-07-30T07:13:23.087Z,21.48
2022-07-30T07:15:57.473Z,21.88
2022-07-30T07:18:34.071Z,21.15
2022-07-30T07:21:12.912Z,20.70
2022-07-30T07:23:47.317Z,21.25
2022-07-30T07:26:40.904Z,20.55
2022-07-30T07:29:17.921Z,19.50
2022-07-30T07:32:05.478Z,20.52
2022-07-30T07:34:44.209Z,18.50
2022-07-30T07:37:19.063Z,17.88
2022-07-30T07:39:58.763Z,18.38
2022-07-30T07:42:34.754Z,17.65
2022-07-30T07:45:11.740Z,17.35
2022-07-30T07:47:54.031Z,16.90
2022-07-30T07:50:44.805Z,17.48
2022-07-30T07:53:27.497Z,16.85
2022-07-30T07:56:02.878Z,16.98
2022-07-30T07:58:38.333Z,16.67
2022-07-30T08:01:19.058Z,18.10
2022-07-30T08:04:10.859Z,16.92
2022-07-30T08:07:04.382Z,16.88
2022-07-30T08:09:58.457Z,18.15
2022-07-30T08:12:52.319Z,16.90
2022-07-30T08:15:55.106Z,16.92
2022-07-30T08:18:49.279Z,17.90
2022-07-30T08:21:35.121Z,17.15
2022-07-30T08:24:08.911Z,17.35
2022-07-30T08:29:31.193Z,16.48
2022-07-30T08:32:07.561Z,16.95
2022-07-30T08:34:46.995Z,17.00
2022-07-30T08:37:21.996Z,17.45
2022-07-30T08:40:13.303Z,18.17
2022-07-30T08:43:06.511Z,18.20
2022-07-30T08:45:41.339Z,18.65
2022-07-30T08:48:46.704Z,18.55
2022-07-30T08:51:29.834Z,19.83
2022-07-30T08:54:13.071Z,19.85
2022-07-30T08:56:50.549Z,18.95
2022-07-30T09:00:00.735Z,19.88
2022-07-30T09:02:27.404Z,20.83
2022-07-30T09:05:07.834Z,21.13
2022-07-30T09:07:43.927Z,19.80
2022-07-30T09:10:27.370Z,20.15
2022-07-30T09:13:01.052Z,19.80
2022-07-30T09:15:48.731Z,20.02
2022-07-30T09:18:33.631Z,18.73
2022-07-30T09:21:18.965Z,19.45
2022-07-30T09:24:06.804Z,18.17
2022-07-30T09:27:05.279Z,17.67
2022-07-30T09:30:03.671Z,18.50
2022-07-30T09:32:57.436Z,19.45
2022-07-30T09:35:49.595Z,19.55
2022-07-30T09:38:52.108Z,19.35
2022-07-30T09:42:05.846Z,19.45
2022-07-30T09:44:39.369Z,19.20
2022-07-30T09:50:09.619Z,18.48
2022-07-30T09:52:48.945Z,19.25
2022-07-30T09:55:41.901Z,19.77
2022-07-30T09:58:26.771Z,19.48
2022-07-30T10:01:04.033Z,19.42
2022-07-30T10:03:58.215Z,20.10
2022-07-30T10:06:50.377Z,19.42
2022-07-30T10:09:40.424Z,23.13
2022-07-30T10:12:16.002Z,20.98
2022-07-30T10:15:00.980Z,21.75
2022-07-30T10:17:39.746Z,21.55
2022-07-30T10:20:43.069Z,20.30
2022-07-30T10:23:55.258Z,21.30
2022-07-30T10:26:46.935Z,20.40
2022-07-30T10:29:42.984Z,21.40
2022-07-30T10:32:19.537Z,20.90
2022-07-30T10:35:05.458Z,21.60
2022-07-30T10:37:41.541Z,19.90
2022-07-30T10:40:23.643Z,21.15
2022-07-30T10:43:47.429Z,21.33
2022-07-30T10:46:33.231Z,21.40
2022-07-30T10:49:30.286Z,23.15
2022-07-30T10:52:14.959Z,22.50
2022-07-30T10:54:49.207Z,22.15
2022-07-30T10:57:32.409Z,21.60
2022-07-30T11:00:19.177Z,21.17
2022-07-30T11:03:16.786Z,21.38
2022-07-30T11:05:55.813Z,22.45
2022-07-30T11:08:49.522Z,22.10
2022-07-30T11:12:05.060Z,21.40
2022-07-30T11:15:07.303Z,21.13
2022-07-30T11:18:12.207Z,21.63
2022-07-30T11:21:07.600Z,21.77
2022-07-30T11:23:54.780Z,22.10
2022-07-30T11:26:55.116Z,22.30
2022-07-30T11:29:50.606Z,23.13
2022-07-30T11:32:33.811Z,22.15
2022-07-30T11:35:34.399Z,22.20
2022-07-30T11:38:11.100Z,22.25
2022-07-30T11:41:24.249Z,21.73
2022-07-30T11:47:19.565Z,22.27
2022-07-30T11:49:54.023Z,22.00
2022-07-30T11:52:28.704Z,22.25
2022-07-30T11:55:02.937Z,22.10
2022-07-30T11:57:47.737Z,22.75
2022-07-30T12:00:22.145Z,22.30
2022-07-30T12:02:57.991Z,24.80
2022-07-30T12:05:34.227Z,24.35
2022-07-30T12:08:08.669Z,23.67
2022-07-30T12:11:05.768Z,23.98
2022-07-30T12:13:44.834Z,22.63
2022-07-30T12:16:23.161Z,24.55
2022-07-30T12:18:57.659Z,23.90
2022-07-30T12:21:32.140Z,24.27
2022-07-30T12:24:09.124Z,23.45
2022-07-30T12:26:43.111Z,24.30
2022-07-30T12:29:19.812Z,27.55
2022-07-30T12:31:56.485Z,24.15
2022-07-30T12:37:22.623Z,24.75
2022-07-30T12:43:01.619Z,23.52
2022-07-30T12:45:50.524Z,23.83
2022-07-30T12:48:27.806Z,24.70
2022-07-30T12:51:11.154Z,24.27
2022-07-30T12:53:47.941Z,24.52
2022-07-30T12:56:24.995Z,24.33
2022-07-30T12:59:00.456Z,24.65
2022-07-30T13:01:51.548Z,25.20
2022-07-30T13:04:26.672Z,24.33
2022-07-30T13:07:10.836Z,23.52
2022-07-30T13:09:45.445Z,24.58
2022-07-30T13:12:21.418Z,24.52
2022-07-30T13:14:55.590Z,25.13
2022-07-30T13:17:36.154Z,25.17
2022-07-30T13:20:12.969Z,24.17
2022-07-30T13:22:50.775Z,24.88
2022-07-30T13:25:25.647Z,24.63
2022-07-30T13:28:12.854Z,25.40
2022-07-30T13:30:48.013Z,25.02
2022-07-30T13:33:24.160Z,25.15
2022-07-30T13:35:59.309Z,26.70
2022-07-30T13:38:34.707Z,25.88
2022-07-30T13:41:11.069Z,25.40
2022-07-30T13:43:45.588Z,25.73
2022-07-30T13:46:19.490Z,25.77
2022-07-30T13:48:55.784Z,24.33
2022-07-30T13:51:30.183Z,26.60
2022-07-30T13:54:04.609Z,27.13
2022-07-30T13:56:40.516Z,25.63
2022-07-30T13:59:15.304Z,25.23
2022-07-30T14:01:50.160Z,26.33
2022-07-30T14:04:26.242Z,25.30
2022-07-30T14:07:00.944Z,25.33
2022-07-30T14:09:45.828Z,26.88
2022-07-30T14:12:22.507Z,25.20
2022-07-30T14:14:56.897Z,26.00
2022-07-30T14:17:31.919Z,24.70
2022-07-30T14:20:09.199Z,28.80
2022-07-30T14:22:44.121Z,27.65
2022-07-30T14:25:19.625Z,27.42
2022-07-30T14:27:54.713Z,26.88
2022-07-30T14:30:29.387Z,26.10
2022-07-30T14:33:04.753Z,28.92
2022-07-30T14:35:41.282Z,26.27
2022-07-30T14:38:21.680Z,25.27
2022-07-30T14:41:01.381Z,27.08
2022-07-30T14:43:36.279Z,26.55
2022-07-30T14:46:11.109Z,25.67
2022-07-30T14:48:45.102Z,24.73
2022-07-30T14:51:26.002Z,28.30
2022-07-30T14:54:13.955Z,27.33
2022-07-30T14:56:49.279Z,26.27
2022-07-30T14:59:23.610Z,27.67
2022-07-30T15:02:01.258Z,25.95
2022-07-30T15:04:35.453Z,26.98
2022-07-30T15:07:13.960Z,26.20
2022-07-30T15:09:55.671Z,25.88
2022-07-30T15:12:30.152Z,27.38
2022-07-30T15:15:04.807Z,27.25
2022-07-30T15:17:42.177Z,26.13
2022-07-30T15:20:17.373Z,25.95
2022-07-30T15:22:54.343Z,25.00
2022-07-30T15:25:29.471Z,25.33
2022-07-30T15:28:03.745Z,26.95
2022-07-30T15:30:38.736Z,27.70
2022-07-30T15:33:13.509Z,25.67
2022-07-30T15:35:48.389Z,26.77
2022-07-30T15:38:24.729Z,27.02
2022-07-30T15:40:59.991Z,26.65
2022-07-30T15:43:34.397Z,27.08
2022-07-30T15:46:08.797Z,24.80
2022-07-30T15:48:42.917Z,25.35
2022-07-30T15:51:18.299Z,25.15
2022-07-30T15:53:57.097Z,26.52
2022-07-30T15:56:33.074Z,25.35
2022-07-30T15:59:07.840Z,24.95
2022-07-30T16:01:42.598Z,24.23
2022-07-30T16:04:31.493Z,25.85
2022-07-30T16:07:07.692Z,28.20
2022-07-30T16:09:44.463Z,27.45
2022-07-30T16:12:18.783Z,25.60
2022-07-30T16:14:53.264Z,26.33
2022-07-30T16:17:28.023Z,26.30
2022-07-30T16:20:02.682Z,25.08
2022-07-30T16:22:37.273Z,25.80
2022-07-30T16:25:14.208Z,25.42
2022-07-30T16:27:50.234Z,25.27
2022-07-30T16:33:31.166Z,25.65
2022-07-30T16:44:45.358Z,26.23
2022-07-30T16:47:19.507Z,27.20
2022-07-30T16:49:53.909Z,27.85
2022-07-30T16:52:27.991Z,28.98
2022-07-30T16:55:02.943Z,27.65
2022-07-30T16:57:39.689Z,28.08
2022-07-30T17:00:16.065Z,28.80
2022-07-30T17:02:51.251Z,31.08
2022-07-30T17:05:25.712Z,30.52
2022-07-30T17:08:01.340Z,33.38
2022-07-30T17:10:35.615Z,30.25
2022-07-30T17:13:11.535Z,31.08
2022-07-30T17:15:46.879Z,30.77
2022-07-30T17:18:21.525Z,31.42
2022-07-30T17:20:56.089Z,33.22
2022-07-30T17:23:30.450Z,32.13
2022-07-30T17:26:04.797Z,32.97
2022-07-30T17:28:40.872Z,32.42
2022-07-30T17:31:14.939Z,36.67
2022-07-30T17:33:49.963Z,33.92
2022-07-30T17:36:24.170Z,34.55
2022-07-30T17:39:01.983Z,37.90
2022-07-30T17:41:36.181Z,39.33
2022-07-30T17:44:32.445Z,37.10
2022-07-30T17:47:08.846Z,38.47
2022-07-30T17:49:46.892Z,35.22
2022-07-30T17:52:25.980Z,35.97
2022-07-30T17:55:00.976Z,34.50
2022-07-30T17:57:34.967Z,33.72
2022-07-30T18:00:13.850Z,33.67
2022-07-30T18:02:47.523Z,33.75
2022-07-30T18:05:21.580Z,34.55
2022-07-30T18:07:56.658Z,34.15
2022-07-30T18:10:31.791Z,33.67
2022-07-30T18:13:19.286Z,33.40
2022-07-30T18:16:02.080Z,31.75
2022-07-30T18:18:40.506Z,33.38
2022-07-30T18:21:18.459Z,32.00
2022-07-30T18:23:52.339Z,33.33
2022-07-30T18:26:27.906Z,32.58
2022-07-30T18:29:02.179Z,34.40
2022-07-30T18:31:38.621Z,33.25
2022-07-30T18:34:12.502Z,32.95
2022-07-30T18:36:46.688Z,32.88
2022-07-30T18:39:20.401Z,33.90
2022-07-30T18:41:54.586Z,32.08
2022-07-30T18:44:28.525Z,35.17
2022-07-30T18:47:04.400Z,34.30
2022-07-30T18:49:38.585Z,35.33
2022-07-30T18:52:12.438Z,36.28
2022-07-30T18:54:46.410Z,36.65
2022-07-30T18:57:20.420Z,35.88
2022-07-30T18:59:54.682Z,35.90
2022-07-30T19:02:30.917Z,37.08
2022-07-30T19:05:04.685Z,36.88
2022-07-30T19:07:57.214Z,38.70
2022-07-30T19:10:32.894Z,37.95
2022-07-30T19:13:07.573Z,39.17
2022-07-30T19:15:41.458Z,37.40
2022-07-30T19:18:17.601Z,39.38
2022-07-30T19:20:52.158Z,38.97
2022-07-30T19:23:26.473Z,40.17
2022-07-30T19:26:00.474Z,39.83
2022-07-30T19:28:34.813Z,40.80
2022-07-30T19:31:08.891Z,40.55
2022-07-30T19:33:44.592Z,40.60
2022-07-30T19:36:22.158Z,40.08
2022-07-30T19:38:59.338Z,41.72
2022-07-30T19:41:44.143Z,40.78
2022-07-30T19:44:19.444Z,40.63
2022-07-30T19:46:53.097Z,40.10
2022-07-30T19:49:29.427Z,42.20
2022-07-30T19:52:17.594Z,40.33
2022-07-30T19:54:58.102Z,41.70
2022-07-30T19:57:52.894Z,39.83
2022-07-30T20:00:28.994Z,36.83
2022-07-30T20:03:03.490Z,38.72
2022-07-30T20:05:57.254Z,37.50
2022-07-30T20:08:34.947Z,38.13
2022-07-30T20:11:09.857Z,39.50
2022-07-30T20:14:03.446Z,37.25
2022-07-30T20:16:38.015Z,37.70
2022-07-30T20:19:12.174Z,39.55
2022-07-30T20:22:06.890Z,39.25
2022-07-30T20:24:41.011Z,38.65
2022-07-30T20:27:36.331Z,39.22
2022-07-30T20:30:11.889Z,39.08
2022-07-30T20:32:47.012Z,38.85
2022-07-30T20:35:22.657Z,39.05
2022-07-30T20:37:58.277Z,40.72
2022-07-30T20:40:32.364Z,44.45
2022-07-30T20:43:08.026Z,39.88
2022-07-30T20:45:43.383Z,38.38
2022-07-30T20:48:25.625Z,39.75
2022-07-30T20:50:59.692Z,42.25
2022-07-30T20:53:37.018Z,40.20
2022-07-30T20:56:11.465Z,43.20
2022-07-30T20:58:48.184Z,45.75
2022-07-30T21:01:22.412Z,46.55
2022-07-30T21:04:00.678Z,46.45
2022-07-30T21:06:38.407Z,45.85
2022-07-30T21:09:15.824Z,44.88
2022-07-30T21:11:50.963Z,45.45
2022-07-30T21:14:24.769Z,48.30
2022-07-30T21:16:59.657Z,44.78
2022-07-30T21:19:33.715Z,47.05
2022-07-30T21:22:07.404Z,44.30
2022-07-30T21:24:43.621Z,46.78
2022-07-30T21:27:17.693Z,46.45
2022-07-30T21:29:53.456Z,45.90
2022-07-30T21:32:28.254Z,47.05
2022-07-30T21:35:08.392Z,47.40
2022-07-30T21:37:42.974Z,49.13
2022-07-30T21:40:24.779Z,49.15
2022-07-30T21:42:58.746Z,48.90
2022-07-30T21:45:38.892Z,49.25
2022-07-30T21:48:13.722Z,48.95
2022-07-30T21:50:47.703Z,48.65
2022-07-30T21:53:26.409Z,47.83
2022-07-30T21:56:19.000Z,50.60
2022-07-30T21:58:53.555Z,51.30
2022-07-30T22:01:27.782Z,52.78
2022-07-30T22:04:07.696Z,51.45
2022-07-30T22:06:44.658Z,54.15
2022-07-30T22:09:34.367Z,53.53
2022-07-30T22:12:12.524Z,55.50
2022-07-30T22:14:52.257Z,58.10
2022-07-30T22:17:36.792Z,51.75
2022-07-30T22:20:12.920Z,52.95
2022-07-30T22:25:41.664Z,54.45
2022-07-30T22:28:21.287Z,54.42
2022-07-30T22:30:56.303Z,55.72
2022-07-30T22:33:31.739Z,53.75
2022-07-30T22:36:06.612Z,55.45
2022-07-30T22:38:43.662Z,53.03
2022-07-30T22:41:33.051Z,54.55
2022-07-30T22:44:09.471Z,56.20
2022-07-30T22:46:47.086Z,56.85
2022-07-30T22:49:45.176Z,55.15
2022-07-30T22:52:28.716Z,55.70
2022-07-30T22:55:08.966Z,55.17
2022-07-30T23:00:34.539Z,53.70
2022-07-30T23:03:08.658Z,54.63
2022-07-30T23:05:43.046Z,50.15
2022-07-30T23:08:30.999Z,50.65
2022-07-30T23:11:05.961Z,54.17
2022-07-30T23:13:41.163Z,50.80
2022-07-30T23:16:17.042Z,51.33
2022-07-30T23:18:51.116Z,48.33
2022-07-30T23:21:27.080Z,44.40
2022-07-30T23:24:01.408Z,46.22
2022-07-30T23:26:35.710Z,43.38
2022-07-30T23:29:13.721Z,45.55
2022-07-30T23:31:52.014Z,40.10
2022-07-30T23:34:26.446Z,40.10
2022-07-30T23:37:00.778Z,30.73
2022-07-30T23:39:35.143Z,33.70
2022-07-30T23:42:09.833Z,31.90
2022-07-30T23:44:43.775Z,30.55
2022-07-30T23:47:19.610Z,26.90
2022-07-30T23:50:14.172Z,26.05
2022-07-30T23:52:48.434Z,24.23
2022-07-30T23:55:22.713Z,24.77
2022-07-30T23:57:56.818Z,23.90
